sensor_id;sensor_type;location;lat;lon;timestamp;P1;durP1;ratioP1;P2;durP2;ratioP2
14776;SDS011;7480;43.124;25.686;2022-07-23T00:01:51;4.10;;;1.80;;
14776;SDS011;7480;43.124;25.686;2022-07-23T00:04:17;6.43;;;2.15;;
14776;SDS011;7480;43.124;25.686;2022-07-23T00:06:44;2.42;;;1.90;;
14776;SDS011;7480;43.124;25.686;2022-07-23T00:09:10;2.55;;;2.00;;
14776;SDS011;7480;43.124;25.686;2022-07-23T00:11:37;2.35;;;1.65;;
14776;SDS011;7480;43.124;25.686;2022-07-23T00:14:05;3.15;;;1.92;;
14776;SDS011;7480;43.124;25.686;2022-07-23T00:16:31;3.08;;;2.00;;
14776;SDS011;7480;43.124;25.686;2022-07-23T00:18:58;1.93;;;1.70;;
14776;SDS011;7480;43.124;25.686;2022-07-23T00:21:28;2.53;;;1.93;;
14776;SDS011;7480;43.124;25.686;2022-07-23T00:23:54;3.30;;;1.80;;
14776;SDS011;7480;43.124;25.686;2022-07-23T00:26:21;3.33;;;2.07;;
14776;SDS011;7480;43.124;25.686;2022-07-23T00:28:47;2.03;;;1.50;;
14776;SDS011;7480;43.124;25.686;2022-07-23T00:31:14;3.20;;;1.98;;
14776;SDS011;7480;43.124;25.686;2022-07-23T00:33:41;1.93;;;1.60;;
14776;SDS011;7480;43.124;25.686;2022-07-23T00:36:08;3.07;;;2.20;;
14776;SDS011;7480;43.124;25.686;2022-07-23T00:38:34;3.80;;;1.90;;
14776;SDS011;7480;43.124;25.686;2022-07-23T00:41:01;2.80;;;1.90;;
14776;SDS011;7480;43.124;25.686;2022-07-23T00:43:27;3.20;;;2.43;;
14776;SDS011;7480;43.124;25.686;2022-07-23T00:45:54;3.03;;;2.07;;
14776;SDS011;7480;43.124;25.686;2022-07-23T00:48:21;3.43;;;1.93;;
14776;SDS011;7480;43.124;25.686;2022-07-23T00:50:47;2.97;;;2.00;;
14776;SDS011;7480;43.124;25.686;2022-07-23T00:53:14;2.30;;;1.90;;
14776;SDS011;7480;43.124;25.686;2022-07-23T00:55:41;4.57;;;2.63;;
14776;SDS011;7480;43.124;25.686;2022-07-23T00:58:08;7.20;;;2.83;;
14776;SDS011;7480;43.124;25.686;2022-07-23T01:00:35;8.00;;;2.60;;
14776;SDS011;7480;43.124;25.686;2022-07-23T01:03:01;7.57;;;2.57;;
14776;SDS011;7480;43.124;25.686;2022-07-23T01:05:28;4.63;;;2.73;;
14776;SDS011;7480;43.124;25.686;2022-07-23T01:07:54;4.03;;;2.70;;
14776;SDS011;7480;43.124;25.686;2022-07-23T01:10:22;3.23;;;2.40;;
14776;SDS011;7480;43.124;25.686;2022-07-23T01:13:05;2.73;;;2.40;;
14776;SDS011;7480;43.124;25.686;2022-07-23T01:15:32;5.13;;;2.87;;
14776;SDS011;7480;43.124;25.686;2022-07-23T01:17:59;5.93;;;2.80;;
14776;SDS011;7480;43.124;25.686;2022-07-23T01:20:26;3.60;;;2.80;;
14776;SDS011;7480;43.124;25.686;2022-07-23T01:22:52;3.00;;;2.20;;
14776;SDS011;7480;43.124;25.686;2022-07-23T01:25:19;5.13;;;3.07;;
14776;SDS011;7480;43.124;25.686;2022-07-23T01:27:46;3.17;;;2.30;;
14776;SDS011;7480;43.124;25.686;2022-07-23T01:30:13;4.00;;;2.70;;
14776;SDS011;7480;43.124;25.686;2022-07-23T01:32:40;4.97;;;2.73;;
14776;SDS011;7480;43.124;25.686;2022-07-23T01:35:06;3.83;;;2.27;;
14776;SDS011;7480;43.124;25.686;2022-07-23T01:37:33;5.83;;;3.10;;
14776;SDS011;7480;43.124;25.686;2022-07-23T01:40:00;4.03;;;2.77;;
14776;SDS011;7480;43.124;25.686;2022-07-23T01:42:28;7.43;;;3.03;;
14776;SDS011;7480;43.124;25.686;2022-07-23T01:44:54;4.17;;;2.80;;
14776;SDS011;7480;43.124;25.686;2022-07-23T01:47:21;2.13;;;1.93;;
14776;SDS011;7480;43.124;25.686;2022-07-23T01:49:47;3.00;;;2.43;;
14776;SDS011;7480;43.124;25.686;2022-07-23T01:52:14;3.57;;;2.60;;
14776;SDS011;7480;43.124;25.686;2022-07-23T01:54:41;4.30;;;2.87;;
14776;SDS011;7480;43.124;25.686;2022-07-23T01:57:07;3.90;;;2.70;;
14776;SDS011;7480;43.124;25.686;2022-07-23T01:59:34;5.37;;;2.83;;
14776;SDS011;7480;43.124;25.686;2022-07-23T02:02:01;6.37;;;2.90;;
14776;SDS011;7480;43.124;25.686;2022-07-23T02:04:30;3.00;;;2.33;;
14776;SDS011;7480;43.124;25.686;2022-07-23T02:06:56;6.23;;;2.40;;
14776;SDS011;7480;43.124;25.686;2022-07-23T02:09:23;4.37;;;2.53;;
14776;SDS011;7480;43.124;25.686;2022-07-23T02:11:50;3.47;;;2.27;;
14776;SDS011;7480;43.124;25.686;2022-07-23T02:14:16;5.60;;;2.67;;
14776;SDS011;7480;43.124;25.686;2022-07-23T02:16:43;7.23;;;3.00;;
14776;SDS011;7480;43.124;25.686;2022-07-23T02:19:09;3.17;;;2.80;;
14776;SDS011;7480;43.124;25.686;2022-07-23T02:21:36;4.20;;;2.30;;
14776;SDS011;7480;43.124;25.686;2022-07-23T02:24:02;2.97;;;2.43;;
14776;SDS011;7480;43.124;25.686;2022-07-23T02:26:29;2.67;;;2.23;;
14776;SDS011;7480;43.124;25.686;2022-07-23T02:28:58;10.57;;;2.80;;
14776;SDS011;7480;43.124;25.686;2022-07-23T02:31:25;6.23;;;2.70;;
14776;SDS011;7480;43.124;25.686;2022-07-23T02:33:52;4.73;;;3.20;;
14776;SDS011;7480;43.124;25.686;2022-07-23T02:36:18;3.17;;;2.47;;
14776;SDS011;7480;43.124;25.686;2022-07-23T02:38:45;2.97;;;2.10;;
14776;SDS011;7480;43.124;25.686;2022-07-23T02:41:11;5.90;;;2.73;;
14776;SDS011;7480;43.124;25.686;2022-07-23T02:43:38;3.63;;;2.57;;
14776;SDS011;7480;43.124;25.686;2022-07-23T02:46:04;3.07;;;2.30;;
14776;SDS011;7480;43.124;25.686;2022-07-23T02:48:31;5.03;;;3.20;;
14776;SDS011;7480;43.124;25.686;2022-07-23T02:51:00;3.67;;;2.53;;
14776;SDS011;7480;43.124;25.686;2022-07-23T02:53:26;10.60;;;2.90;;
14776;SDS011;7480;43.124;25.686;2022-07-23T02:55:53;4.97;;;2.73;;
14776;SDS011;7480;43.124;25.686;2022-07-23T02:58:19;3.53;;;2.27;;
14776;SDS011;7480;43.124;25.686;2022-07-23T03:00:46;4.30;;;2.47;;
14776;SDS011;7480;43.124;25.686;2022-07-23T03:03:18;4.88;;;2.53;;
14776;SDS011;7480;43.124;25.686;2022-07-23T03:05:45;4.43;;;3.07;;
14776;SDS011;7480;43.124;25.686;2022-07-23T03:08:11;4.33;;;2.47;;
14776;SDS011;7480;43.124;25.686;2022-07-23T03:10:38;3.50;;;2.80;;
14776;SDS011;7480;43.124;25.686;2022-07-23T03:13:04;5.70;;;2.83;;
14776;SDS011;7480;43.124;25.686;2022-07-23T03:15:31;3.90;;;2.60;;
14776;SDS011;7480;43.124;25.686;2022-07-23T03:17:57;4.37;;;2.97;;
14776;SDS011;7480;43.124;25.686;2022-07-23T03:20:25;6.67;;;3.00;;
14776;SDS011;7480;43.124;25.686;2022-07-23T03:22:51;6.30;;;3.07;;
14776;SDS011;7480;43.124;25.686;2022-07-23T03:25:18;10.97;;;3.37;;
14776;SDS011;7480;43.124;25.686;2022-07-23T03:27:44;5.47;;;2.83;;
14776;SDS011;7480;43.124;25.686;2022-07-23T03:30:11;9.23;;;2.73;;
14776;SDS011;7480;43.124;25.686;2022-07-23T03:32:38;4.37;;;2.87;;
14776;SDS011;7480;43.124;25.686;2022-07-23T03:35:05;5.88;;;3.33;;
14776;SDS011;7480;43.124;25.686;2022-07-23T03:37:34;5.17;;;3.47;;
14776;SDS011;7480;43.124;25.686;2022-07-23T03:40:00;5.97;;;3.33;;
14776;SDS011;7480;43.124;25.686;2022-07-23T03:42:27;8.43;;;3.23;;
14776;SDS011;7480;43.124;25.686;2022-07-23T03:44:53;5.80;;;3.67;;
14776;SDS011;7480;43.124;25.686;2022-07-23T03:47:20;13.05;;;4.15;;
14776;SDS011;7480;43.124;25.686;2022-07-23T03:49:48;9.88;;;4.10;;
14776;SDS011;7480;43.124;25.686;2022-07-23T03:52:14;8.07;;;3.63;;
14776;SDS011;7480;43.124;25.686;2022-07-23T03:54:41;6.28;;;3.47;;
14776;SDS011;7480;43.124;25.686;2022-07-23T03:57:07;8.77;;;3.90;;
14776;SDS011;7480;43.124;25.686;2022-07-23T03:59:34;6.40;;;3.53;;
14776;SDS011;7480;43.124;25.686;2022-07-23T04:02:00;6.28;;;2.97;;
14776;SDS011;7480;43.124;25.686;2022-07-23T04:04:27;5.22;;;3.40;;
14776;SDS011;7480;43.124;25.686;2022-07-23T04:06:53;6.50;;;2.90;;
14776;SDS011;7480;43.124;25.686;2022-07-23T04:09:20;7.78;;;3.85;;
14776;SDS011;7480;43.124;25.686;2022-07-23T04:11:46;6.47;;;3.45;;
14776;SDS011;7480;43.124;25.686;2022-07-23T04:14:13;5.30;;;3.15;;
14776;SDS011;7480;43.124;25.686;2022-07-23T04:16:39;8.93;;;3.33;;
14776;SDS011;7480;43.124;25.686;2022-07-23T04:19:06;4.85;;;2.75;;
14776;SDS011;7480;43.124;25.686;2022-07-23T04:21:32;9.55;;;3.35;;
14776;SDS011;7480;43.124;25.686;2022-07-23T04:23:59;4.35;;;3.00;;
14776;SDS011;7480;43.124;25.686;2022-07-23T04:26:26;7.82;;;3.33;;
14776;SDS011;7480;43.124;25.686;2022-07-23T04:29:10;7.60;;;3.51;;
14776;SDS011;7480;43.124;25.686;2022-07-23T04:31:37;10.82;;;3.00;;
14776;SDS011;7480;43.124;25.686;2022-07-23T04:34:04;8.25;;;3.80;;
14776;SDS011;7480;43.124;25.686;2022-07-23T04:36:30;8.43;;;5.22;;
14776;SDS011;7480;43.124;25.686;2022-07-23T04:38:57;5.53;;;3.72;;
14776;SDS011;7480;43.124;25.686;2022-07-23T04:41:23;5.30;;;3.30;;
14776;SDS011;7480;43.124;25.686;2022-07-23T04:43:50;8.50;;;4.32;;
14776;SDS011;7480;43.124;25.686;2022-07-23T04:46:16;8.55;;;5.20;;
14776;SDS011;7480;43.124;25.686;2022-07-23T04:48:44;5.85;;;3.60;;
14776;SDS011;7480;43.124;25.686;2022-07-23T04:51:10;3.63;;;2.60;;
14776;SDS011;7480;43.124;25.686;2022-07-23T04:53:37;5.45;;;3.13;;
14776;SDS011;7480;43.124;25.686;2022-07-23T04:56:04;4.45;;;2.80;;
14776;SDS011;7480;43.124;25.686;2022-07-23T04:58:31;6.97;;;2.90;;
14776;SDS011;7480;43.124;25.686;2022-07-23T05:00:58;5.47;;;3.28;;
14776;SDS011;7480;43.124;25.686;2022-07-23T05:03:24;3.83;;;3.10;;
14776;SDS011;7480;43.124;25.686;2022-07-23T05:05:51;5.45;;;2.75;;
14776;SDS011;7480;43.124;25.686;2022-07-23T05:08:17;5.93;;;3.50;;
14776;SDS011;7480;43.124;25.686;2022-07-23T05:10:44;5.57;;;3.47;;
14776;SDS011;7480;43.124;25.686;2022-07-23T05:13:10;22.30;;;3.42;;
14776;SDS011;7480;43.124;25.686;2022-07-23T05:15:37;7.65;;;4.13;;
14776;SDS011;7480;43.124;25.686;2022-07-23T05:18:03;10.35;;;3.72;;
14776;SDS011;7480;43.124;25.686;2022-07-23T05:20:30;6.20;;;2.97;;
14776;SDS011;7480;43.124;25.686;2022-07-23T05:22:56;4.60;;;3.58;;
14776;SDS011;7480;43.124;25.686;2022-07-23T05:25:23;5.75;;;4.05;;
14776;SDS011;7480;43.124;25.686;2022-07-23T05:27:50;5.00;;;3.70;;
14776;SDS011;7480;43.124;25.686;2022-07-23T05:30:16;6.25;;;3.80;;
14776;SDS011;7480;43.124;25.686;2022-07-23T05:32:43;7.63;;;3.85;;
14776;SDS011;7480;43.124;25.686;2022-07-23T05:35:09;6.28;;;4.35;;
14776;SDS011;7480;43.124;25.686;2022-07-23T05:37:36;5.13;;;3.95;;
14776;SDS011;7480;43.124;25.686;2022-07-23T05:40:03;12.10;;;3.88;;
14776;SDS011;7480;43.124;25.686;2022-07-23T05:42:30;7.45;;;3.60;;
14776;SDS011;7480;43.124;25.686;2022-07-23T05:44:56;6.97;;;3.78;;
14776;SDS011;7480;43.124;25.686;2022-07-23T05:47:23;5.13;;;3.13;;
14776;SDS011;7480;43.124;25.686;2022-07-23T05:49:50;6.90;;;3.70;;
14776;SDS011;7480;43.124;25.686;2022-07-23T05:52:16;8.20;;;4.07;;
14776;SDS011;7480;43.124;25.686;2022-07-23T05:54:43;6.88;;;3.70;;
14776;SDS011;7480;43.124;25.686;2022-07-23T05:57:18;9.41;;;3.47;;
14776;SDS011;7480;43.124;25.686;2022-07-23T05:59:50;6.97;;;3.25;;
14776;SDS011;7480;43.124;25.686;2022-07-23T06:02:17;4.55;;;2.90;;
14776;SDS011;7480;43.124;25.686;2022-07-23T06:04:43;3.88;;;2.88;;
14776;SDS011;7480;43.124;25.686;2022-07-23T06:07:09;10.85;;;3.00;;
14776;SDS011;7480;43.124;25.686;2022-07-23T06:09:36;5.43;;;3.00;;
14776;SDS011;7480;43.124;25.686;2022-07-23T06:12:03;7.68;;;3.10;;
14776;SDS011;7480;43.124;25.686;2022-07-23T06:14:29;4.38;;;2.90;;
14776;SDS011;7480;43.124;25.686;2022-07-23T06:16:56;13.57;;;2.97;;
14776;SDS011;7480;43.124;25.686;2022-07-23T06:19:22;8.20;;;2.80;;
14776;SDS011;7480;43.124;25.686;2022-07-23T06:21:49;7.55;;;3.05;;
14776;SDS011;7480;43.124;25.686;2022-07-23T06:24:15;7.63;;;2.72;;
14776;SDS011;7480;43.124;25.686;2022-07-23T06:26:42;7.10;;;2.75;;
14776;SDS011;7480;43.124;25.686;2022-07-23T06:29:09;7.25;;;2.42;;
14776;SDS011;7480;43.124;25.686;2022-07-23T06:31:35;4.90;;;2.58;;
14776;SDS011;7480;43.124;25.686;2022-07-23T06:34:02;5.10;;;2.75;;
14776;SDS011;7480;43.124;25.686;2022-07-23T06:36:29;7.40;;;2.95;;
14776;SDS011;7480;43.124;25.686;2022-07-23T06:38:55;5.20;;;2.25;;
14776;SDS011;7480;43.124;25.686;2022-07-23T06:41:23;2.97;;;2.53;;
14776;SDS011;7480;43.124;25.686;2022-07-23T06:43:50;6.32;;;2.20;;
14776;SDS011;7480;43.124;25.686;2022-07-23T06:46:16;4.90;;;2.53;;
14776;SDS011;7480;43.124;25.686;2022-07-23T06:48:43;7.82;;;2.95;;
14776;SDS011;7480;43.124;25.686;2022-07-23T06:51:09;4.72;;;2.13;;
14776;SDS011;7480;43.124;25.686;2022-07-23T06:53:36;13.90;;;2.92;;
14776;SDS011;7480;43.124;25.686;2022-07-23T06:56:02;6.32;;;2.55;;
14776;SDS011;7480;43.124;25.686;2022-07-23T06:58:29;8.35;;;2.35;;
14776;SDS011;7480;43.124;25.686;2022-07-23T07:00:55;7.35;;;2.45;;
14776;SDS011;7480;43.124;25.686;2022-07-23T07:03:23;5.07;;;2.40;;
14776;SDS011;7480;43.124;25.686;2022-07-23T07:05:49;4.32;;;2.47;;
14776;SDS011;7480;43.124;25.686;2022-07-23T07:08:16;3.70;;;2.30;;
14776;SDS011;7480;43.124;25.686;2022-07-23T07:10:42;3.63;;;2.67;;
14776;SDS011;7480;43.124;25.686;2022-07-23T07:13:09;5.00;;;2.25;;
14776;SDS011;7480;43.124;25.686;2022-07-23T07:15:35;4.75;;;3.03;;
14776;SDS011;7480;43.124;25.686;2022-07-23T07:18:02;4.55;;;2.60;;
14776;SDS011;7480;43.124;25.686;2022-07-23T07:20:29;5.10;;;2.78;;
14776;SDS011;7480;43.124;25.686;2022-07-23T07:22:55;3.40;;;2.38;;
14776;SDS011;7480;43.124;25.686;2022-07-23T07:25:22;3.25;;;2.50;;
14776;SDS011;7480;43.124;25.686;2022-07-23T07:27:48;7.53;;;2.85;;
14776;SDS011;7480;43.124;25.686;2022-07-23T07:30:15;4.20;;;2.58;;
14776;SDS011;7480;43.124;25.686;2022-07-23T07:32:42;4.63;;;2.90;;
14776;SDS011;7480;43.124;25.686;2022-07-23T07:35:24;8.50;;;2.65;;
14776;SDS011;7480;43.124;25.686;2022-07-23T07:37:51;3.60;;;2.75;;
14776;SDS011;7480;43.124;25.686;2022-07-23T07:40:18;3.17;;;2.45;;
14776;SDS011;7480;43.124;25.686;2022-07-23T07:42:45;4.05;;;2.63;;
14776;SDS011;7480;43.124;25.686;2022-07-23T07:45:12;6.07;;;2.70;;
14776;SDS011;7480;43.124;25.686;2022-07-23T07:47:38;3.40;;;2.45;;
14776;SDS011;7480;43.124;25.686;2022-07-23T07:50:05;3.25;;;2.67;;
14776;SDS011;7480;43.124;25.686;2022-07-23T07:52:32;3.42;;;2.40;;
14776;SDS011;7480;43.124;25.686;2022-07-23T07:54:58;4.82;;;2.80;;
14776;SDS011;7480;43.124;25.686;2022-07-23T07:57:25;6.32;;;3.10;;
14776;SDS011;7480;43.124;25.686;2022-07-23T07:59:51;3.70;;;2.80;;
14776;SDS011;7480;43.124;25.686;2022-07-23T08:02:21;2.55;;;2.30;;
14776;SDS011;7480;43.124;25.686;2022-07-23T08:04:48;3.83;;;2.40;;
14776;SDS011;7480;43.124;25.686;2022-07-23T08:07:15;6.78;;;3.15;;
14776;SDS011;7480;43.124;25.686;2022-07-23T08:09:42;5.80;;;2.93;;
14776;SDS011;7480;43.124;25.686;2022-07-23T08:12:08;4.55;;;2.70;;
14776;SDS011;7480;43.124;25.686;2022-07-23T08:14:35;2.47;;;2.28;;
14776;SDS011;7480;43.124;25.686;2022-07-23T08:17:01;6.93;;;3.10;;
14776;SDS011;7480;43.124;25.686;2022-07-23T08:19:39;4.05;;;2.65;;
14776;SDS011;7480;43.124;25.686;2022-07-23T08:22:06;3.28;;;2.85;;
14776;SDS011;7480;43.124;25.686;2022-07-23T08:24:32;3.13;;;2.38;;
14776;SDS011;7480;43.124;25.686;2022-07-23T08:26:59;3.50;;;2.95;;
14776;SDS011;7480;43.124;25.686;2022-07-23T08:29:26;4.13;;;2.85;;
14776;SDS011;7480;43.124;25.686;2022-07-23T08:31:52;9.68;;;2.95;;
14776;SDS011;7480;43.124;25.686;2022-07-23T08:34:19;8.15;;;3.22;;
14776;SDS011;7480;43.124;25.686;2022-07-23T08:36:45;4.72;;;2.70;;
14776;SDS011;7480;43.124;25.686;2022-07-23T08:39:12;5.35;;;2.60;;
14776;SDS011;7480;43.124;25.686;2022-07-23T08:41:39;9.07;;;3.20;;
14776;SDS011;7480;43.124;25.686;2022-07-23T08:44:07;3.33;;;3.03;;
14776;SDS011;7480;43.124;25.686;2022-07-23T08:46:33;4.88;;;2.90;;
14776;SDS011;7480;43.124;25.686;2022-07-23T08:49:05;5.32;;;3.47;;
14776;SDS011;7480;43.124;25.686;2022-07-23T08:51:32;10.85;;;2.78;;
14776;SDS011;7480;43.124;25.686;2022-07-23T08:53:59;2.83;;;2.63;;
14776;SDS011;7480;43.124;25.686;2022-07-23T08:56:26;5.90;;;2.58;;
14776;SDS011;7480;43.124;25.686;2022-07-23T08:58:53;4.47;;;3.28;;
14776;SDS011;7480;43.124;25.686;2022-07-23T09:01:20;3.63;;;2.85;;
14776;SDS011;7480;43.124;25.686;2022-07-23T09:03:46;8.57;;;3.50;;
14776;SDS011;7480;43.124;25.686;2022-07-23T09:06:13;3.75;;;3.33;;
14776;SDS011;7480;43.124;25.686;2022-07-23T09:08:41;4.28;;;3.17;;
14776;SDS011;7480;43.124;25.686;2022-07-23T09:11:08;6.95;;;3.10;;
14776;SDS011;7480;43.124;25.686;2022-07-23T09:16:06;5.88;;;2.65;;
14776;SDS011;7480;43.124;25.686;2022-07-23T09:18:46;4.60;;;3.40;;
14776;SDS011;7480;43.124;25.686;2022-07-23T09:21:32;4.03;;;2.65;;
14776;SDS011;7480;43.124;25.686;2022-07-23T09:24:12;4.05;;;2.75;;
14776;SDS011;7480;43.124;25.686;2022-07-23T09:39:39;5.50;;;3.20;;
14776;SDS011;7480;43.124;25.686;2022-07-23T09:42:16;4.05;;;2.97;;
14776;SDS011;7480;43.124;25.686;2022-07-23T09:44:47;4.93;;;2.85;;
14776;SDS011;7480;43.124;25.686;2022-07-23T09:47:14;3.30;;;2.70;;
14776;SDS011;7480;43.124;25.686;2022-07-23T09:49:40;5.57;;;2.83;;
14776;SDS011;7480;43.124;25.686;2022-07-23T09:52:31;5.82;;;3.58;;
14776;SDS011;7480;43.124;25.686;2022-07-23T09:55:03;4.45;;;3.13;;
14776;SDS011;7480;43.124;25.686;2022-07-23T09:57:44;4.65;;;2.70;;
14776;SDS011;7480;43.124;25.686;2022-07-23T10:00:21;4.55;;;3.33;;
14776;SDS011;7480;43.124;25.686;2022-07-23T10:02:49;3.78;;;2.88;;
14776;SDS011;7480;43.124;25.686;2022-07-23T10:05:16;4.18;;;3.15;;
14776;SDS011;7480;43.124;25.686;2022-07-23T10:07:45;3.55;;;2.45;;
14776;SDS011;7480;43.124;25.686;2022-07-23T10:10:18;4.80;;;3.28;;
14776;SDS011;7480;43.124;25.686;2022-07-23T10:12:44;6.70;;;3.28;;
14776;SDS011;7480;43.124;25.686;2022-07-23T10:15:17;3.28;;;2.50;;
14776;SDS011;7480;43.124;25.686;2022-07-23T10:17:43;4.10;;;2.78;;
14776;SDS011;7480;43.124;25.686;2022-07-23T10:20:10;7.38;;;2.97;;
14776;SDS011;7480;43.124;25.686;2022-07-23T10:22:37;4.10;;;2.78;;
14776;SDS011;7480;43.124;25.686;2022-07-23T10:37:43;3.72;;;2.50;;
14776;SDS011;7480;43.124;25.686;2022-07-23T10:40:11;2.92;;;2.53;;
14776;SDS011;7480;43.124;25.686;2022-07-23T10:42:37;2.67;;;2.45;;
14776;SDS011;7480;43.124;25.686;2022-07-23T10:47:50;3.72;;;2.60;;
14776;SDS011;7480;43.124;25.686;2022-07-23T10:50:21;7.07;;;3.22;;
14776;SDS011;7480;43.124;25.686;2022-07-23T10:58:01;7.00;;;3.33;;
14776;SDS011;7480;43.124;25.686;2022-07-23T11:00:29;3.17;;;2.35;;
14776;SDS011;7480;43.124;25.686;2022-07-23T11:02:56;5.17;;;3.03;;
14776;SDS011;7480;43.124;25.686;2022-07-23T11:05:26;4.72;;;3.03;;
14776;SDS011;7480;43.124;25.686;2022-07-23T11:13:25;14.55;;;3.15;;
14776;SDS011;7480;43.124;25.686;2022-07-23T11:31:56;3.08;;;2.30;;
14776;SDS011;7480;43.124;25.686;2022-07-23T11:37:06;14.95;;;3.03;;
14776;SDS011;7480;43.124;25.686;2022-07-23T11:39:33;3.25;;;2.17;;
14776;SDS011;7480;43.124;25.686;2022-07-23T11:42:01;2.55;;;2.35;;
14776;SDS011;7480;43.124;25.686;2022-07-23T11:44:32;3.45;;;2.20;;
14776;SDS011;7480;43.124;25.686;2022-07-23T11:47:00;4.65;;;3.00;;
14776;SDS011;7480;43.124;25.686;2022-07-23T11:49:27;6.70;;;2.75;;
14776;SDS011;7480;43.124;25.686;2022-07-23T11:52:10;3.20;;;2.90;;
14776;SDS011;7480;43.124;25.686;2022-07-23T11:54:46;5.60;;;2.97;;
14776;SDS011;7480;43.124;25.686;2022-07-23T11:57:13;7.65;;;2.65;;
14776;SDS011;7480;43.124;25.686;2022-07-23T11:59:39;5.07;;;2.67;;
14776;SDS011;7480;43.124;25.686;2022-07-23T12:02:06;6.88;;;2.72;;
14776;SDS011;7480;43.124;25.686;2022-07-23T12:04:40;5.20;;;2.60;;
14776;SDS011;7480;43.124;25.686;2022-07-23T12:09:49;5.97;;;2.58;;
14776;SDS011;7480;43.124;25.686;2022-07-23T12:12:15;2.88;;;2.55;;
14776;SDS011;7480;43.124;25.686;2022-07-23T12:15:16;3.78;;;2.42;;
14776;SDS011;7480;43.124;25.686;2022-07-23T12:17:36;3.78;;;2.63;;
14776;SDS011;7480;43.124;25.686;2022-07-23T12:20:04;5.95;;;3.17;;
14776;SDS011;7480;43.124;25.686;2022-07-23T12:22:51;7.68;;;3.10;;
14776;SDS011;7480;43.124;25.686;2022-07-23T12:25:22;5.50;;;2.65;;
14776;SDS011;7480;43.124;25.686;2022-07-23T12:28:09;4.78;;;3.05;;
14776;SDS011;7480;43.124;25.686;2022-07-23T12:30:43;5.45;;;2.53;;
14776;SDS011;7480;43.124;25.686;2022-07-23T12:33:12;4.30;;;3.03;;
14776;SDS011;7480;43.124;25.686;2022-07-23T12:35:40;4.70;;;2.80;;
14776;SDS011;7480;43.124;25.686;2022-07-23T12:38:09;6.35;;;2.72;;
14776;SDS011;7480;43.124;25.686;2022-07-23T12:40:37;3.83;;;2.63;;
14776;SDS011;7480;43.124;25.686;2022-07-23T12:43:08;2.92;;;2.65;;
14776;SDS011;7480;43.124;25.686;2022-07-23T12:45:42;5.80;;;2.75;;
14776;SDS011;7480;43.124;25.686;2022-07-23T12:48:14;5.18;;;3.30;;
14776;SDS011;7480;43.124;25.686;2022-07-23T12:55:50;8.00;;;3.08;;
14776;SDS011;7480;43.124;25.686;2022-07-23T12:58:47;4.75;;;2.95;;
14776;SDS011;7480;43.124;25.686;2022-07-23T13:06:22;5.63;;;2.63;;
14776;SDS011;7480;43.124;25.686;2022-07-23T13:08:50;4.85;;;2.88;;
14776;SDS011;7480;43.124;25.686;2022-07-23T13:11:16;6.45;;;2.92;;
14776;SDS011;7480;43.124;25.686;2022-07-23T13:13:45;6.00;;;3.10;;
14776;SDS011;7480;43.124;25.686;2022-07-23T13:16:11;5.72;;;2.88;;
14776;SDS011;7480;43.124;25.686;2022-07-23T13:18:38;3.47;;;2.70;;
14776;SDS011;7480;43.124;25.686;2022-07-23T13:21:04;7.45;;;2.78;;
14776;SDS011;7480;43.124;25.686;2022-07-23T13:23:31;6.00;;;3.03;;
14776;SDS011;7480;43.124;25.686;2022-07-23T13:25:58;7.05;;;3.00;;
14776;SDS011;7480;43.124;25.686;2022-07-23T13:28:25;5.63;;;2.65;;
14776;SDS011;7480;43.124;25.686;2022-07-23T13:30:52;7.45;;;2.78;;
14776;SDS011;7480;43.124;25.686;2022-07-23T13:33:20;5.82;;;3.40;;
14776;SDS011;7480;43.124;25.686;2022-07-23T13:35:47;7.55;;;3.20;;
14776;SDS011;7480;43.124;25.686;2022-07-23T13:38:14;7.85;;;3.30;;
14776;SDS011;7480;43.124;25.686;2022-07-23T13:40:44;4.63;;;3.03;;
14776;SDS011;7480;43.124;25.686;2022-07-23T13:43:11;4.65;;;3.10;;
14776;SDS011;7480;43.124;25.686;2022-07-23T13:45:39;6.57;;;3.03;;
14776;SDS011;7480;43.124;25.686;2022-07-23T13:48:06;6.25;;;3.38;;
14776;SDS011;7480;43.124;25.686;2022-07-23T13:50:33;2.90;;;2.60;;
14776;SDS011;7480;43.124;25.686;2022-07-23T13:53:00;5.73;;;2.90;;
14776;SDS011;7480;43.124;25.686;2022-07-23T13:55:27;5.45;;;2.80;;
14776;SDS011;7480;43.124;25.686;2022-07-23T13:57:55;3.10;;;2.78;;
14776;SDS011;7480;43.124;25.686;2022-07-23T14:00:22;3.70;;;2.40;;
14776;SDS011;7480;43.124;25.686;2022-07-23T14:03:09;7.68;;;2.55;;
14776;SDS011;7480;43.124;25.686;2022-07-23T14:05:36;5.97;;;3.05;;
14776;SDS011;7480;43.124;25.686;2022-07-23T14:08:03;4.28;;;2.70;;
14776;SDS011;7480;43.124;25.686;2022-07-23T14:10:30;5.72;;;3.00;;
14776;SDS011;7480;43.124;25.686;2022-07-23T14:12:57;8.43;;;2.92;;
14776;SDS011;7480;43.124;25.686;2022-07-23T14:15:27;5.45;;;3.28;;
14776;SDS011;7480;43.124;25.686;2022-07-23T14:17:55;4.97;;;2.85;;
14776;SDS011;7480;43.124;25.686;2022-07-23T14:20:22;4.47;;;2.80;;
14776;SDS011;7480;43.124;25.686;2022-07-23T14:22:49;4.90;;;2.65;;
14776;SDS011;7480;43.124;25.686;2022-07-23T14:25:16;3.47;;;2.97;;
14776;SDS011;7480;43.124;25.686;2022-07-23T14:27:43;4.63;;;2.70;;
14776;SDS011;7480;43.124;25.686;2022-07-23T14:30:11;5.93;;;2.78;;
14776;SDS011;7480;43.124;25.686;2022-07-23T14:32:39;3.22;;;2.78;;
14776;SDS011;7480;43.124;25.686;2022-07-23T14:35:06;3.58;;;2.58;;
14776;SDS011;7480;43.124;25.686;2022-07-23T14:37:36;8.43;;;2.95;;
14776;SDS011;7480;43.124;25.686;2022-07-23T14:40:02;7.38;;;3.10;;
14776;SDS011;7480;43.124;25.686;2022-07-23T14:42:29;7.68;;;3.35;;
14776;SDS011;7480;43.124;25.686;2022-07-23T14:44:56;4.18;;;2.47;;
14776;SDS011;7480;43.124;25.686;2022-07-23T14:47:22;10.00;;;3.45;;
14776;SDS011;7480;43.124;25.686;2022-07-23T14:49:50;5.13;;;2.90;;
14776;SDS011;7480;43.124;25.686;2022-07-23T14:52:17;5.43;;;3.20;;
14776;SDS011;7480;43.124;25.686;2022-07-23T14:54:45;6.22;;;3.22;;
14776;SDS011;7480;43.124;25.686;2022-07-23T14:57:11;7.25;;;3.85;;
14776;SDS011;7480;43.124;25.686;2022-07-23T14:59:38;5.50;;;2.88;;
14776;SDS011;7480;43.124;25.686;2022-07-23T15:02:06;6.65;;;2.92;;
14776;SDS011;7480;43.124;25.686;2022-07-23T15:04:32;3.72;;;2.58;;
14776;SDS011;7480;43.124;25.686;2022-07-23T15:07:03;5.35;;;2.92;;
14776;SDS011;7480;43.124;25.686;2022-07-23T15:09:30;6.93;;;3.53;;
14776;SDS011;7480;43.124;25.686;2022-07-23T15:11:57;4.57;;;2.83;;
14776;SDS011;7480;43.124;25.686;2022-07-23T15:14:24;3.67;;;2.80;;
14776;SDS011;7480;43.124;25.686;2022-07-23T15:16:55;5.38;;;3.45;;
14776;SDS011;7480;43.124;25.686;2022-07-23T15:19:22;6.57;;;3.15;;
14776;SDS011;7480;43.124;25.686;2022-07-23T15:21:48;7.93;;;3.33;;
14776;SDS011;7480;43.124;25.686;2022-07-23T15:24:15;5.78;;;2.50;;
14776;SDS011;7480;43.124;25.686;2022-07-23T15:26:42;5.45;;;3.53;;
14776;SDS011;7480;43.124;25.686;2022-07-23T15:29:09;6.75;;;2.72;;
14776;SDS011;7480;43.124;25.686;2022-07-23T15:31:35;6.10;;;3.03;;
14776;SDS011;7480;43.124;25.686;2022-07-23T15:34:02;5.38;;;3.15;;
14776;SDS011;7480;43.124;25.686;2022-07-23T15:36:29;8.37;;;3.43;;
14776;SDS011;7480;43.124;25.686;2022-07-23T15:38:55;4.47;;;2.72;;
14776;SDS011;7480;43.124;25.686;2022-07-23T15:41:22;10.23;;;3.33;;
14776;SDS011;7480;43.124;25.686;2022-07-23T15:43:49;4.03;;;2.78;;
14776;SDS011;7480;43.124;25.686;2022-07-23T15:46:16;5.38;;;3.00;;
14776;SDS011;7480;43.124;25.686;2022-07-23T15:48:50;6.50;;;3.33;;
14776;SDS011;7480;43.124;25.686;2022-07-23T15:51:17;3.83;;;2.78;;
14776;SDS011;7480;43.124;25.686;2022-07-23T15:53:44;7.60;;;3.15;;
14776;SDS011;7480;43.124;25.686;2022-07-23T15:56:15;10.60;;;3.15;;
14776;SDS011;7480;43.124;25.686;2022-07-23T15:58:42;7.07;;;2.83;;
14776;SDS011;7480;43.124;25.686;2022-07-23T16:01:10;4.40;;;2.70;;
14776;SDS011;7480;43.124;25.686;2022-07-23T16:03:36;13.98;;;2.83;;
14776;SDS011;7480;43.124;25.686;2022-07-23T16:06:05;7.22;;;2.65;;